Página principal
METAR-TAF:

METAR-TAF

Aeroportos :

Saint-Louis, Senegal

latitude: 16-03N, longitude: 016-27W, altura: 4 m

Observação actual do tempo

O boletim foi feito há 1 hora e 40 minutos, às 21:00 UTC
Vento 4 kt de nor-noroeste, variando entre oes-noroeste e nor-nordeste
Temperatura 23°C
Humidade 78%
Pressão 1008 hPa
Visibilidade 10 km ou mais
sem nuvens abaixo de 1500 metros e sem cumulonimbus

METAR: GOSS 152100Z 34004KT 290V020 CAVOK 23/19 Q1008

Hora: 22:40 (22:40 UTC)

Previsão

O boletim foi feito há 5 horas e 10 minutos, às 17:30 UTC
Previsão válida de 15 às 18 UTC a 16 às 18 UTC
Vento 8 kt de norte
Visibilidade 10 km ou mais
sem nuvens abaixo de 1500 metros e sem cumulonimbus

TAF: GOSS 151730Z 1518/1618 35008KT CAVOK

Observações e previsões do tempo de mais de 4000 aeroportos (mensagens METAR e TAF).

As estações disponíveis são os pontos amarelos e vermelhos sobre o mapa.

Mova o rato sobre o mapa para ver o nome da estação.

Depois clique no ponto para visualizar as observações e previsões meteorológicas.

Para alterar o mapa : clique nos botões verdes com uma cruz preta para aumentar o zoom; no botão verde com uma pitada de zoom; ou nas setas verdes para mapas adjacentes.


METAR-TAF: